Terminal Aerodrome Forecast
Issued by NWS

Home | Current Version | Previous Version | Text Only | Print | Product List | Glossary On
Versions: 1 2 3 4 5 6 7 8 9 10 11 12 13 14 15 16 17 18 19 20 21 22 23 24 25 26 27 28 29 30 31 32
000
FTUS41 KBOX 030540
TAFHYA
TAF
KHYA 030540Z 0306/0406 36004KT P6SM BKN015
     FM030900 02005KT P6SM -RA OVC090
     FM031100 05004KT P6SM +RA SCT010 OVC050
     FM031600 06007KT 5SM -RA BR OVC010
     FM032000 05008KT 2SM BR VCSH OVC008=

USA.gov is the U.S. government's official web portal to all federal, state and local government web resources and services.